createdAt,value
2019-03-23T00:01:20.771Z,100965.34
2019-03-23T00:03:54.930Z,100961.25
2019-03-23T00:06:31.078Z,100960.14
2019-03-23T00:09:06.232Z,100956.02
2019-03-23T00:11:40.726Z,100953.88
2019-03-23T00:14:16.237Z,100953.73
2019-03-23T00:16:51.414Z,100951.98
2019-03-23T00:19:26.470Z,100950.95
2019-03-23T00:22:00.992Z,100938.54
2019-03-23T00:24:35.901Z,100938.04
2019-03-23T00:27:10.485Z,100932.27
2019-03-23T00:29:45.457Z,100929.25
2019-03-23T00:32:20.491Z,100924.45
2019-03-23T00:34:55.419Z,100921.95
2019-03-23T00:37:30.349Z,100924.73
2019-03-23T00:40:05.080Z,100922.82
2019-03-23T00:42:40.024Z,100922.05
2019-03-23T00:45:14.849Z,100917.80
2019-03-23T00:47:49.347Z,100919.47
2019-03-23T00:50:24.333Z,100918.41
2019-03-23T00:52:59.114Z,100912.77
2019-03-23T00:55:33.782Z,100905.76
2019-03-23T00:58:08.266Z,100901.74
2019-03-23T01:00:43.094Z,100901.00
2019-03-23T01:03:18.277Z,100899.83
2019-03-23T01:05:53.369Z,100888.27
2019-03-23T01:08:27.892Z,100887.53
2019-03-23T01:11:02.947Z,100882.17
2019-03-23T01:13:37.465Z,100876.23
2019-03-23T01:16:12.426Z,100877.14
2019-03-23T01:18:46.924Z,100872.28
2019-03-23T01:21:21.437Z,100870.09
2019-03-23T01:23:57.071Z,100868.19
2019-03-23T01:26:31.814Z,100870.27
2019-03-23T01:29:06.990Z,100868.26
2019-03-23T01:31:41.716Z,100868.59
2019-03-23T01:34:16.111Z,100858.87
2019-03-23T01:36:50.519Z,100858.20
2019-03-23T01:39:25.619Z,100857.02
2019-03-23T01:42:00.596Z,100860.54
2019-03-23T01:44:35.383Z,100863.16
2019-03-23T01:47:09.840Z,100856.62
2019-03-23T01:49:43.991Z,100858.36
2019-03-23T01:52:18.492Z,100860.51
2019-03-23T01:54:52.732Z,100853.80
2019-03-23T01:57:27.228Z,100851.13
2019-03-23T02:00:02.052Z,100857.02
2019-03-23T02:02:36.612Z,100856.52
2019-03-23T02:05:11.626Z,100856.45
2019-03-23T02:07:46.886Z,100852.93
2019-03-23T02:10:22.132Z,100851.82
2019-03-23T02:12:57.037Z,100854.57
2019-03-23T02:15:31.138Z,100849.94
2019-03-23T02:18:05.808Z,100841.66
2019-03-23T02:20:40.810Z,100846.32
2019-03-23T02:23:15.647Z,100845.05
2019-03-23T02:25:50.473Z,100837.56
2019-03-23T02:28:24.101Z,100837.23
2019-03-23T02:30:59.035Z,100830.69
2019-03-23T02:33:34.141Z,100835.79
2019-03-23T02:36:08.645Z,100828.75
2019-03-23T02:38:43.606Z,100827.91
2019-03-23T02:41:18.634Z,100828.81
2019-03-23T02:43:53.226Z,100822.68
2019-03-23T02:46:27.860Z,100823.45
2019-03-23T02:49:02.816Z,100819.95
2019-03-23T02:51:39.772Z,100821.46
2019-03-23T02:54:14.406Z,100826.86
2019-03-23T02:56:49.054Z,100819.70
2019-03-23T02:59:24.813Z,100814.14
2019-03-23T03:01:59.658Z,100806.56
2019-03-23T03:04:35.393Z,100808.36
2019-03-23T03:07:10.420Z,100804.80
2019-03-23T03:09:45.578Z,100805.09
2019-03-23T03:12:20.513Z,100797.28
2019-03-23T03:14:55.424Z,100796.01
2019-03-23T03:17:30.008Z,100790.61
2019-03-23T03:20:05.151Z,100792.67
2019-03-23T03:22:40.550Z,100788.34
2019-03-23T03:25:15.775Z,100788.03
2019-03-23T03:27:50.802Z,100786.81
2019-03-23T03:30:25.815Z,100787.94
2019-03-23T03:33:00.756Z,100782.42
2019-03-23T03:35:35.492Z,100780.92
2019-03-23T03:38:09.988Z,100778.22
2019-03-23T03:40:45.209Z,100780.33
2019-03-23T03:43:20.678Z,100783.34
2019-03-23T03:45:55.742Z,100783.41
2019-03-23T03:48:30.717Z,100781.95
2019-03-23T03:51:06.231Z,100779.44
2019-03-23T03:53:41.181Z,100772.13
2019-03-23T03:56:16.194Z,100771.02
2019-03-23T03:58:50.392Z,100768.22
2019-03-23T04:01:26.110Z,100769.39
2019-03-23T04:04:00.873Z,100773.62
2019-03-23T04:06:35.932Z,100769.48
2019-03-23T04:09:12.218Z,100765.44
2019-03-23T04:11:47.322Z,100763.20
2019-03-23T04:14:22.154Z,100768.68
2019-03-23T04:16:56.988Z,100770.56
2019-03-23T04:19:31.914Z,100767.80
2019-03-23T04:22:06.628Z,100771.73
2019-03-23T04:24:41.688Z,100771.58
2019-03-23T04:27:16.212Z,100774.16
2019-03-23T04:29:51.484Z,100770.00
2019-03-23T04:32:25.760Z,100769.47
2019-03-23T04:35:00.897Z,100767.19
2019-03-23T04:37:35.557Z,100773.69
2019-03-23T04:40:10.388Z,100777.48
2019-03-23T04:42:44.713Z,100778.61
2019-03-23T04:45:19.024Z,100776.13
2019-03-23T04:47:53.511Z,100778.77
2019-03-23T04:50:28.137Z,100778.78
2019-03-23T04:53:02.898Z,100780.52
2019-03-23T04:55:37.499Z,100775.69
2019-03-23T04:58:12.434Z,100776.63
2019-03-23T05:00:49.459Z,100778.34
2019-03-23T05:03:24.469Z,100775.49
2019-03-23T05:05:59.383Z,100782.15
2019-03-23T05:08:34.188Z,100782.03
2019-03-23T05:11:08.951Z,100783.89
2019-03-23T05:13:43.299Z,100783.89
2019-03-23T05:16:18.269Z,100776.94
2019-03-23T05:18:54.663Z,100776.61
2019-03-23T05:21:29.173Z,100778.67
2019-03-23T05:24:03.904Z,100779.15
2019-03-23T05:26:38.603Z,100775.70
2019-03-23T05:29:12.520Z,100779.95
2019-03-23T05:31:47.167Z,100783.42
2019-03-23T05:34:22.029Z,100783.81
2019-03-23T05:36:57.291Z,100784.51
2019-03-23T05:39:32.200Z,100787.17
2019-03-23T05:42:06.721Z,100782.47
2019-03-23T05:44:41.846Z,100791.72
2019-03-23T05:47:16.611Z,100794.31
2019-03-23T05:49:50.928Z,100794.23
2019-03-23T05:52:25.556Z,100793.52
2019-03-23T05:55:00.553Z,100790.91
2019-03-23T05:57:35.375Z,100789.09
2019-03-23T06:00:09.160Z,100791.68
2019-03-23T06:02:44.323Z,100789.25
2019-03-23T06:05:20.207Z,100786.50
2019-03-23T06:07:55.192Z,100785.82
2019-03-23T06:10:30.445Z,100777.26
2019-03-23T06:13:05.264Z,100779.34
2019-03-23T06:15:39.609Z,100778.81
2019-03-23T06:18:14.186Z,100779.34
2019-03-23T06:20:48.942Z,100769.98
2019-03-23T06:23:24.400Z,100771.84
2019-03-23T06:25:59.190Z,100766.08
2019-03-23T06:28:34.356Z,100766.73
2019-03-23T06:31:09.036Z,100766.37
2019-03-23T06:33:43.797Z,100762.25
2019-03-23T06:36:18.619Z,100762.75
2019-03-23T06:38:53.102Z,100767.53
2019-03-23T06:41:27.608Z,100767.06
2019-03-23T06:44:02.100Z,100767.12
2019-03-23T06:46:36.909Z,100770.05
2019-03-23T06:49:12.104Z,100770.52
2019-03-23T06:51:46.353Z,100772.49
2019-03-23T06:54:20.285Z,100769.67
2019-03-23T06:56:54.990Z,100765.72
2019-03-23T06:59:29.930Z,100768.82
2019-03-23T07:02:03.646Z,100763.31
2019-03-23T07:04:38.698Z,100761.41
2019-03-23T07:07:13.872Z,100758.69
2019-03-23T07:09:48.811Z,100748.04
2019-03-23T07:12:23.502Z,100742.26
2019-03-23T07:14:57.971Z,100748.81
2019-03-23T07:17:32.478Z,100745.27
2019-03-23T07:20:07.553Z,100746.14
2019-03-23T07:22:41.851Z,100743.52
2019-03-23T07:25:16.100Z,100740.33
2019-03-23T07:27:49.948Z,100731.89
2019-03-23T07:30:24.352Z,100723.84
2019-03-23T07:32:59.053Z,100724.33
2019-03-23T07:35:34.120Z,100722.54
2019-03-23T07:38:08.620Z,100722.20
2019-03-23T07:40:43.422Z,100711.80
2019-03-23T07:43:17.916Z,100707.76
2019-03-23T07:45:53.114Z,100709.84
2019-03-23T07:48:28.609Z,100708.98
2019-03-23T07:51:03.621Z,100712.05
2019-03-23T07:53:38.415Z,100706.59
2019-03-23T07:56:13.590Z,100703.38
2019-03-23T07:58:48.561Z,100697.59
2019-03-23T08:01:23.407Z,100698.42
2019-03-23T08:03:57.911Z,100698.48
2019-03-23T08:06:32.426Z,100697.45
2019-03-23T08:09:08.304Z,100689.30
2019-03-23T08:11:43.628Z,100690.52
2019-03-23T08:14:18.347Z,100677.84
2019-03-23T08:16:54.411Z,100678.56
2019-03-23T08:19:29.194Z,100677.84
2019-03-23T08:22:04.262Z,100677.55
2019-03-23T08:24:38.191Z,100668.80
2019-03-23T08:27:13.166Z,100665.64
2019-03-23T08:29:47.817Z,100664.16
2019-03-23T08:32:22.861Z,100667.20
2019-03-23T08:34:58.155Z,100669.48
2019-03-23T08:37:32.972Z,100666.58
2019-03-23T08:40:07.782Z,100665.23
2019-03-23T08:42:41.924Z,100656.28
2019-03-23T08:45:16.101Z,100652.09
2019-03-23T08:47:50.627Z,100642.80
2019-03-23T08:50:25.765Z,100643.15
2019-03-23T08:53:00.583Z,100636.95
2019-03-23T08:55:35.579Z,100638.40
2019-03-23T08:58:10.560Z,100636.80
2019-03-23T09:00:46.141Z,100634.30
2019-03-23T09:03:20.607Z,100629.41
2019-03-23T09:05:55.218Z,100621.11
2019-03-23T09:08:30.620Z,100628.34
2019-03-23T09:11:04.619Z,100621.38
2019-03-23T09:13:40.838Z,100625.24
2019-03-23T09:16:15.154Z,100625.14
2019-03-23T09:18:50.762Z,100622.47
2019-03-23T09:21:25.869Z,100624.80
2019-03-23T09:24:00.908Z,100621.70
2019-03-23T09:26:35.500Z,100621.95
2019-03-23T09:29:12.802Z,100621.86
2019-03-23T09:31:47.324Z,100629.92
2019-03-23T09:34:21.943Z,100625.53
2019-03-23T09:36:56.648Z,100632.31
2019-03-23T09:39:31.102Z,100626.84
2019-03-23T09:42:07.113Z,100626.16
2019-03-23T09:44:44.697Z,100628.82
2019-03-23T09:47:19.156Z,100622.07
2019-03-23T09:49:52.742Z,100623.90
2019-03-23T09:52:27.142Z,100621.70
2019-03-23T09:55:00.341Z,100622.35
2019-03-23T09:57:34.525Z,100617.75
2019-03-23T10:00:07.983Z,100616.39
2019-03-23T10:02:41.509Z,100620.74
2019-03-23T10:05:15.057Z,100617.20
2019-03-23T10:07:49.728Z,100609.35
2019-03-23T10:10:24.764Z,100605.92
2019-03-23T10:12:59.739Z,100605.98
2019-03-23T10:15:34.736Z,100602.66
2019-03-23T10:18:09.382Z,100599.34
2019-03-23T10:20:43.478Z,100599.91
2019-03-23T10:23:18.513Z,100593.64
2019-03-23T10:25:53.135Z,100590.36
2019-03-23T10:28:27.579Z,100584.41
2019-03-23T10:31:02.604Z,100582.83
2019-03-23T10:33:37.137Z,100577.19
2019-03-23T10:36:12.374Z,100572.16
2019-03-23T10:38:47.385Z,100576.13
2019-03-23T10:41:22.341Z,100572.50
2019-03-23T10:43:56.843Z,100573.05
2019-03-23T10:46:31.977Z,100568.25
2019-03-23T10:49:06.588Z,100567.60
2019-03-23T10:51:41.138Z,100564.15
2019-03-23T10:54:15.939Z,100566.44
2019-03-23T10:56:50.900Z,100560.27
2019-03-23T10:59:27.940Z,100556.31
2019-03-23T11:02:01.256Z,100556.37
2019-03-23T11:04:35.997Z,100546.31
2019-03-23T11:07:12.831Z,100544.30
2019-03-23T11:09:47.354Z,100547.74
2019-03-23T11:12:22.434Z,100542.11
2019-03-23T11:14:56.957Z,100534.10
2019-03-23T11:17:31.790Z,100523.58
2019-03-23T11:20:06.649Z,100528.17
2019-03-23T11:22:40.840Z,100526.98
2019-03-23T11:25:15.955Z,100523.53
2019-03-23T11:27:50.919Z,100516.80
2019-03-23T11:30:25.762Z,100513.00
2019-03-23T11:33:00.901Z,100506.85
2019-03-23T11:35:35.683Z,100508.23
2019-03-23T11:38:11.133Z,100495.55
2019-03-23T11:40:53.849Z,100489.81
2019-03-23T11:43:22.478Z,100483.73
2019-03-23T11:45:57.090Z,100484.13
2019-03-23T11:48:31.235Z,100479.28
2019-03-23T11:51:06.202Z,100470.85
2019-03-23T11:53:41.170Z,100467.73
2019-03-23T11:56:16.806Z,100467.04
2019-03-23T11:58:53.903Z,100464.31
2019-03-23T12:01:28.189Z,100458.32
2019-03-23T12:04:05.247Z,100459.16
2019-03-23T12:06:40.425Z,100446.09
2019-03-23T12:09:14.846Z,100438.79
2019-03-23T12:11:51.811Z,100428.41
2019-03-23T12:14:25.961Z,100426.55
2019-03-23T12:17:00.883Z,100424.34
2019-03-23T12:19:35.459Z,100408.80
2019-03-23T12:22:09.522Z,100413.61
2019-03-23T12:24:44.571Z,100402.38
2019-03-23T12:27:19.613Z,100398.09
2019-03-23T12:29:54.540Z,100393.13
2019-03-23T12:32:29.363Z,100390.01
2019-03-23T12:35:03.872Z,100385.44
2019-03-23T12:37:39.012Z,100382.81
2019-03-23T12:40:12.716Z,100375.55
2019-03-23T12:42:47.847Z,100378.65
2019-03-23T12:45:22.312Z,100375.42
2019-03-23T12:47:57.391Z,100370.08
2019-03-23T12:50:31.709Z,100362.58
2019-03-23T12:53:06.891Z,100366.11
2019-03-23T12:55:41.581Z,100363.59
2019-03-23T12:58:18.105Z,100363.75
2019-03-23T13:00:52.694Z,100359.67
2019-03-23T13:03:27.628Z,100359.04
2019-03-23T13:06:02.997Z,100351.55
2019-03-23T13:08:36.668Z,100349.23
2019-03-23T13:11:09.841Z,100337.50
2019-03-23T13:13:43.646Z,100328.82
2019-03-23T13:16:16.429Z,100319.85
2019-03-23T13:18:56.440Z,100309.78
2019-03-23T13:21:32.665Z,100306.16
2019-03-23T13:24:08.341Z,100298.89
2019-03-23T13:26:42.870Z,100289.70
2019-03-23T13:29:17.073Z,100285.03
2019-03-23T13:31:51.872Z,100296.31
2019-03-23T13:34:28.796Z,100291.48
2019-03-23T13:37:02.041Z,100288.52
2019-03-23T13:39:35.179Z,100291.05
2019-03-23T13:42:09.888Z,100287.12
2019-03-23T13:44:43.653Z,100279.77
2019-03-23T13:47:18.531Z,100281.69
2019-03-23T13:49:52.809Z,100276.14
2019-03-23T13:52:30.010Z,100281.59
2019-03-23T13:55:03.705Z,100275.73
2019-03-23T13:57:37.526Z,100276.14
2019-03-23T14:00:12.812Z,100267.64
2019-03-23T14:02:47.405Z,100268.50
2019-03-23T14:05:38.952Z,100265.38
2019-03-23T14:08:12.261Z,100260.75
2019-03-23T14:10:47.722Z,100258.45
2019-03-23T14:13:22.029Z,100255.68
2019-03-23T14:15:56.885Z,100259.56
2019-03-23T14:18:31.639Z,100258.25
2019-03-23T14:21:06.621Z,100254.78
2019-03-23T14:23:41.137Z,100249.36
2019-03-23T14:26:16.274Z,100242.84
2019-03-23T14:28:51.211Z,100238.95
2019-03-23T14:31:26.738Z,100229.53
2019-03-23T14:34:01.339Z,100227.20
2019-03-23T14:36:36.047Z,100228.85
2019-03-23T14:39:10.737Z,100232.86
2019-03-23T14:41:45.207Z,100226.17
2019-03-23T14:44:20.397Z,100229.10
2019-03-23T14:46:55.325Z,100228.30
2019-03-23T14:49:29.529Z,100225.80
2019-03-23T14:52:03.210Z,100224.12
2019-03-23T14:54:37.358Z,100221.77
2019-03-23T14:57:12.295Z,100218.31
2019-03-23T14:59:47.326Z,100214.58
2019-03-23T15:02:22.238Z,100211.27
2019-03-23T15:04:57.175Z,100213.79
2019-03-23T15:07:31.407Z,100208.81
2019-03-23T15:10:05.835Z,100204.34
2019-03-23T15:12:40.769Z,100208.55
2019-03-23T15:15:15.299Z,100213.27
2019-03-23T15:17:49.495Z,100211.83
2019-03-23T15:20:24.055Z,100210.94
2019-03-23T15:22:59.159Z,100210.92
2019-03-23T15:25:34.914Z,100209.33
2019-03-23T15:28:09.573Z,100204.64
2019-03-23T15:30:44.577Z,100202.07
2019-03-23T15:33:19.637Z,100203.42
2019-03-23T15:35:54.195Z,100205.70
2019-03-23T15:38:29.359Z,100209.52
2019-03-23T15:41:03.731Z,100208.09
2019-03-23T15:43:38.616Z,100212.04
2019-03-23T15:46:12.383Z,100215.56
2019-03-23T15:48:45.254Z,100216.39
2019-03-23T15:51:18.825Z,100215.09
2019-03-23T15:53:52.043Z,100216.87
2019-03-23T15:56:24.924Z,100215.62
2019-03-23T15:58:58.936Z,100220.34
2019-03-23T16:01:32.686Z,100222.59
2019-03-23T16:04:06.066Z,100224.06
2019-03-23T16:06:40.102Z,100222.97
2019-03-23T16:09:14.013Z,100222.61
2019-03-23T16:11:48.004Z,100215.84
2019-03-23T16:14:22.307Z,100213.78
2019-03-23T16:16:55.241Z,100215.30
2019-03-23T16:19:29.945Z,100217.72
2019-03-23T16:22:03.244Z,100216.00
2019-03-23T16:24:36.578Z,100213.95
2019-03-23T16:27:09.828Z,100214.54
2019-03-23T16:29:44.770Z,100216.87
2019-03-23T16:32:19.601Z,100216.66
2019-03-23T16:34:54.574Z,100225.67
2019-03-23T16:37:28.252Z,100234.80
2019-03-23T16:40:02.512Z,100234.68
2019-03-23T16:42:44.669Z,100232.41
2019-03-23T16:45:13.674Z,100236.15
2019-03-23T16:47:48.610Z,100233.45
2019-03-23T16:50:23.645Z,100235.61
2019-03-23T16:52:58.250Z,100240.89
2019-03-23T16:55:33.405Z,100244.35
2019-03-23T16:58:15.976Z,100245.58
2019-03-23T17:00:45.232Z,100248.77
2019-03-23T17:03:20.252Z,100256.92
2019-03-23T17:05:55.285Z,100255.13
2019-03-23T17:08:30.426Z,100257.39
2019-03-23T17:11:05.026Z,100258.73
2019-03-23T17:13:39.582Z,100259.72
2019-03-23T17:16:14.588Z,100264.25
2019-03-23T17:18:49.463Z,100265.66
2019-03-23T17:21:23.949Z,100266.72
2019-03-23T17:23:58.991Z,100265.34
2019-03-23T17:26:33.828Z,100272.35
2019-03-23T17:29:08.013Z,100271.69
2019-03-23T17:31:42.666Z,100269.73
2019-03-23T17:34:16.764Z,100267.72
2019-03-23T17:36:52.123Z,100273.27
2019-03-23T17:39:27.060Z,100273.48
2019-03-23T17:42:03.212Z,100273.69
2019-03-23T17:44:38.279Z,100274.41
2019-03-23T17:47:13.498Z,100277.66
2019-03-23T17:49:48.527Z,100286.11
2019-03-23T17:52:22.229Z,100285.28
2019-03-23T17:54:56.863Z,100285.19
2019-03-23T17:57:31.897Z,100282.70
2019-03-23T18:00:06.896Z,100279.56
2019-03-23T18:02:41.204Z,100279.19
2019-03-23T18:05:15.753Z,100276.84
2019-03-23T18:07:50.959Z,100277.07
2019-03-23T18:10:28.114Z,100279.87
2019-03-23T18:13:02.395Z,100283.36
2019-03-23T18:15:37.667Z,100288.28
2019-03-23T18:18:12.467Z,100286.37
2019-03-23T18:20:47.633Z,100285.59
2019-03-23T18:23:22.553Z,100277.72
2019-03-23T18:25:57.501Z,100282.25
2019-03-23T18:28:32.313Z,100287.69
2019-03-23T18:31:07.279Z,100287.45
2019-03-23T18:33:42.083Z,100292.09
2019-03-23T18:36:17.242Z,100291.71
2019-03-23T18:38:52.754Z,100297.02
2019-03-23T18:41:27.310Z,100297.21
2019-03-23T18:44:02.439Z,100300.48
2019-03-23T18:46:39.205Z,100302.23
2019-03-23T18:49:14.383Z,100307.97
2019-03-23T18:51:52.117Z,100310.02
2019-03-23T18:54:27.074Z,100311.38
2019-03-23T18:57:02.220Z,100312.05
2019-03-23T18:59:37.158Z,100309.33
2019-03-23T19:02:11.155Z,100313.92
2019-03-23T19:04:43.924Z,100313.40
2019-03-23T19:07:17.545Z,100310.83
2019-03-23T19:09:55.563Z,100309.36
2019-03-23T19:12:29.701Z,100312.80
2019-03-23T19:15:03.125Z,100311.63
2019-03-23T19:17:38.946Z,100318.68
2019-03-23T19:20:14.348Z,100316.62
2019-03-23T19:22:49.321Z,100319.11
2019-03-23T19:25:24.853Z,100318.83
2019-03-23T19:27:59.033Z,100313.52
2019-03-23T19:30:33.820Z,100315.63
2019-03-23T19:33:06.741Z,100313.16
2019-03-23T19:35:43.021Z,100316.67
2019-03-23T19:38:18.272Z,100319.20
2019-03-23T19:40:52.997Z,100320.64
2019-03-23T19:43:27.670Z,100324.32
2019-03-23T19:46:03.138Z,100320.16
2019-03-23T19:48:37.265Z,100321.89
2019-03-23T19:51:10.992Z,100318.64
2019-03-23T19:53:44.390Z,100313.83
2019-03-23T19:56:17.971Z,100314.91
2019-03-23T19:58:53.922Z,100316.91
2019-03-23T20:01:28.538Z,100315.05
2019-03-23T20:04:02.804Z,100317.30
2019-03-23T20:06:35.551Z,100320.70
2019-03-23T20:09:10.535Z,100319.05
2019-03-23T20:11:44.646Z,100321.53
2019-03-23T20:14:17.538Z,100319.38
2019-03-23T20:16:50.321Z,100320.48
2019-03-23T20:19:23.888Z,100320.05
2019-03-23T20:21:58.034Z,100312.16
2019-03-23T20:24:31.875Z,100308.66
2019-03-23T20:27:05.949Z,100314.13
2019-03-23T20:29:40.119Z,100312.13
2019-03-23T20:32:14.581Z,100317.96
2019-03-23T20:34:50.707Z,100317.64
2019-03-23T20:37:25.856Z,100320.51
2019-03-23T20:40:00.461Z,100327.08
2019-03-23T20:42:36.592Z,100327.86
2019-03-23T20:45:11.109Z,100331.34
2019-03-23T20:47:46.682Z,100340.30
2019-03-23T20:50:20.379Z,100353.09
2019-03-23T20:52:55.632Z,100349.05
2019-03-23T20:55:31.324Z,100350.95
2019-03-23T20:58:05.333Z,100355.71
2019-03-23T21:00:47.420Z,100360.32
2019-03-23T21:03:22.902Z,100358.20
2019-03-23T21:05:56.237Z,100363.64
2019-03-23T21:08:29.382Z,100365.09
2019-03-23T21:11:02.647Z,100370.59
2019-03-23T21:13:38.014Z,100376.13
2019-03-23T21:16:11.428Z,100377.02
2019-03-23T21:18:44.188Z,100378.12
2019-03-23T21:21:17.800Z,100383.55
2019-03-23T21:23:52.599Z,100379.97
2019-03-23T21:26:25.843Z,100385.13
2019-03-23T21:28:59.527Z,100382.22
2019-03-23T21:31:33.045Z,100386.53
2019-03-23T21:34:07.077Z,100385.79
2019-03-23T21:36:41.107Z,100388.60
2019-03-23T21:39:14.761Z,100391.95
2019-03-23T21:41:48.970Z,100390.53
2019-03-23T21:44:31.010Z,100385.84
2019-03-23T21:46:58.834Z,100389.44
2019-03-23T21:49:32.854Z,100390.55
2019-03-23T21:52:06.598Z,100396.89
2019-03-23T21:54:40.103Z,100396.92
2019-03-23T21:57:15.169Z,100409.89
2019-03-23T21:59:49.544Z,100413.81
2019-03-23T22:02:23.955Z,100411.38
2019-03-23T22:04:56.730Z,100421.67
2019-03-23T22:07:30.292Z,100417.61
2019-03-23T22:10:04.379Z,100417.64
2019-03-23T22:12:37.601Z,100425.33
2019-03-23T22:15:13.147Z,100433.87
2019-03-23T22:17:46.960Z,100426.87
2019-03-23T22:20:20.553Z,100429.78
2019-03-23T22:22:53.999Z,100433.48
2019-03-23T22:25:27.109Z,100435.12
2019-03-23T22:28:01.174Z,100436.42
2019-03-23T22:30:33.951Z,100441.74
2019-03-23T22:33:07.478Z,100450.36
2019-03-23T22:35:41.670Z,100445.05
2019-03-23T22:38:16.568Z,100437.00
2019-03-23T22:40:51.258Z,100438.91
2019-03-23T22:43:25.844Z,100448.27
2019-03-23T22:46:00.659Z,100450.58
2019-03-23T22:48:35.466Z,100451.77
2019-03-23T22:51:10.979Z,100453.64
2019-03-23T22:53:45.859Z,100457.34
2019-03-23T22:56:20.793Z,100463.03
2019-03-23T22:58:55.494Z,100464.56
2019-03-23T23:01:30.006Z,100461.54
2019-03-23T23:04:04.668Z,100464.53
2019-03-23T23:06:38.969Z,100475.01
2019-03-23T23:09:13.936Z,100473.93
2019-03-23T23:11:48.486Z,100478.73
2019-03-23T23:14:23.583Z,100487.53
2019-03-23T23:16:58.492Z,100486.00
2019-03-23T23:19:33.199Z,100495.81
2019-03-23T23:22:07.689Z,100498.95
2019-03-23T23:24:42.294Z,100507.42
2019-03-23T23:27:17.424Z,100510.52
2019-03-23T23:29:51.979Z,100516.14
2019-03-23T23:32:26.276Z,100519.31
2019-03-23T23:35:01.392Z,100525.09
2019-03-23T23:37:36.467Z,100529.28
2019-03-23T23:40:10.967Z,100529.59
2019-03-23T23:42:45.958Z,100531.53
2019-03-23T23:45:20.200Z,100532.94
2019-03-23T23:47:55.255Z,100538.56
2019-03-23T23:50:30.161Z,100540.59
2019-03-23T23:53:05.120Z,100547.80
2019-03-23T23:55:39.780Z,100542.20
2019-03-23T23:58:14.787Z,100551.01
